Detall de PIREP

Printer-friendly versionPDF version

[2012/03/12 13:52:00]
Flight IATA:CT1004
Pilot Number:037
Company ICAO:CAT
Aircraft Type:B752/E
PAX:162
Departing Airport: LKPR
Destination Airport: LEBL
Alternate Airport:LEPA
Online: VATSIM
Route:DOBEN UP861 RUDAP UQ227 ULMES UQ209 BALSI UY16 MTL UZ38 PPG UP84 ALBER
Flight Level:F380
No Slew and time accel
No pause
Crash detect
Detect pilot in Cockpit between each 30 and 45 minutes
13:52 Zero fuel Weight: 173581 Lbs, Fuel Weight: 27497 Lbs
13:52 VATSIM:LKPR 121330Z 30014KT 9999 BKN018 08/04 Q1024 NOSIG
13:52 VATSIM:LEBL 121300Z 20012KT CAVOK 17/08 Q1024 NOSIG
14:03 Parking Brakes off
14:13 Take-off
14:13 Take off Weight: 199641 Lbs
14:13 Wind: 325º @ 006 Knots Heading: 246º
14:13 POS N50º 06´ 32´´ E014º 14´ 58´´
14:13 Gear Up: 180 Knots
14:13 Flaps:3 at 180 Knots
14:13 Flaps:2 at 193 Knots
14:13 Flaps:1 at 197 Knots
14:15 Flaps:0 at 192 Knots
14:28 Wind:352º@018 Knots Heading: 239º Ground Speed: 468 Knots Altitude 36515 ft
14:29 TOC
14:29 Fuel Weight: 21774 Lb
14:43 Wind:006º@014 Knots Heading: 237º Ground Speed: 471 Knots Altitude 38349 ft
14:58 Wind:019º@024 Knots Heading: 235º Ground Speed: 482 Knots Altitude 38339 ft
15:13 Wind:009º@035 Knots Heading: 228º Ground Speed: 492 Knots Altitude 38379 ft
15:28 Wind:345º@016 Knots Heading: 211º Ground Speed: 478 Knots Altitude 38251 ft
15:34 TOD
15:34 Fuel Weight: 14125 Lb
15:43 Wind:160º@022 Knots Heading: 188º Ground Speed: 352 Knots Altitude 24101 ft
15:53 Flaps:1 at 214 Knots
15:54 Flaps:2 at 197 Knots
15:55 Flaps:3 at 180 Knots
15:59 Gear Down: 175 Knots
16:01 Flaps:4 at 157 Knots
16:01 Flaps:5 at 140 Knots
16:03 Flaps:6 at 136 Knots
16:05 TouchDown:Rate -290 ft/min Speed: 130 Knots
16:05 VATSIM:LEBL 121530Z 22016KT CAVOK 17/09 Q1023 NOSIG
16:05 Land
16:05 Wind:194º@015 Knots
16:05 Heading: 245º
16:05 Flight Duration: 01:52
16:05 Landing Weight: 185051 Lbs
16:05 POS N41º 17´ 53´´ E002º 04´ 54´´
16:09 Parking brakes on
16:09 Block to Block Duration: 02:06
16:09 Final Fuel: 10956 Lbls
16:09 Spent Fuel: 16541 Lbls
16:09 Flight Length: 619 NM
16:09 TOD Land Length: 114 NM

Exportar CSV

Powered by Drupal - Modified by Danger4k